Time;durP1;ratioP1;P1;durP2;ratioP2;P2;SDS_P1;SDS_P2;PMS_P1;PMS_P2;Temp;Humidity;BMP_temperature;BMP_pressure;BME280_temperature;BME280_humidity;BME280_pressure;Samples;Min_cycle;Max_cycle;Signal;HPM_P1;HPM_P2
2023/12/29 00:01:44;;;;;;;4.20;2.90;;;;;;;12.96;56.96;97504.56;5068322;28;20452;-71
2023/12/29 00:04:10;;;;;;;3.40;2.83;;;;;;;13.00;56.24;97497.16;5071872;28;20211;-72
2023/12/29 00:06:39;;;;;;;2.80;2.60;;;;;;;13.09;56.15;97483.03;5061636;28;20191;-71
2023/12/29 00:09:04;;;;;;;3.73;3.10;;;;;;;13.11;55.82;97483.72;5067176;28;20194;-70
2023/12/29 00:11:30;;;;;;;3.40;2.70;;;;;;;13.22;55.51;97493.13;5073470;28;20498;-71
2023/12/29 00:13:55;;;;;;;5.60;2.60;;;;;;;13.17;55.88;97488.31;5067162;28;20293;-71
2023/12/29 00:16:21;;;;;;;3.40;2.97;;;;;;;13.25;55.42;97489.31;5080504;28;20347;-70
2023/12/29 00:18:46;;;;;;;3.03;2.73;;;;;;;13.31;55.69;97486.88;5066354;28;20646;-70
2023/12/29 00:21:12;;;;;;;3.43;2.87;;;;;;;13.20;55.60;97477.47;5077255;28;20269;-70
2023/12/29 00:23:37;;;;;;;3.33;3.03;;;;;;;13.26;55.53;97483.88;5069132;28;20201;-72
2023/12/29 00:26:03;;;;;;;4.50;2.87;;;;;;;13.25;55.48;97487.50;5076640;28;20348;-71
2023/12/29 00:28:28;;;;;;;3.03;2.83;;;;;;;13.23;55.71;97472.88;5075344;28;20214;-71
2023/12/29 00:30:54;;;;;;;4.33;3.00;;;;;;;13.25;55.74;97484.06;5065172;28;20205;-71
2023/12/29 00:33:19;;;;;;;2.77;2.57;;;;;;;13.25;55.39;97479.59;5047504;28;20301;-69
2023/12/29 00:35:44;;;;;;;3.40;2.90;;;;;;;13.26;55.30;97485.72;5066007;28;20201;-69
2023/12/29 00:38:10;;;;;;;3.20;2.70;;;;;;;13.21;55.28;97484.38;5064279;28;20178;-69
2023/12/29 00:40:35;;;;;;;2.90;2.67;;;;;;;13.26;55.39;97476.00;5070691;28;20193;-69
2023/12/29 00:43:01;;;;;;;2.70;2.50;;;;;;;13.14;55.47;97474.66;5063545;28;20880;-70
2023/12/29 00:45:31;;;;;;;3.10;2.70;;;;;;;13.26;55.07;97478.63;5076716;28;20973;-71
2023/12/29 00:47:57;;;;;;;3.13;2.83;;;;;;;13.19;55.03;97475.00;5074741;28;21047;-69
2023/12/29 00:50:23;;;;;;;4.30;3.10;;;;;;;13.25;55.17;97478.81;5077857;28;20449;-70
2023/12/29 00:52:48;;;;;;;5.20;3.10;;;;;;;13.25;54.89;97474.34;5072146;28;20519;-71
2023/12/29 00:55:13;;;;;;;3.20;2.50;;;;;;;13.30;54.48;97471.22;5066401;28;20229;-71
2023/12/29 00:57:39;;;;;;;3.13;2.83;;;;;;;13.22;54.92;97479.97;5069876;28;20187;-70
2023/12/29 01:00:05;;;;;;;4.43;2.80;;;;;;;13.12;55.13;97484.53;5076962;28;20694;-70
2023/12/29 01:02:31;;;;;;;3.20;2.90;;;;;;;13.20;54.81;97488.00;5073922;28;20193;-71
2023/12/29 01:04:56;;;;;;;4.30;3.20;;;;;;;13.17;55.21;97492.75;5068945;28;20428;-71
2023/12/29 01:07:22;;;;;;;3.03;2.80;;;;;;;13.27;54.69;97490.81;5062540;28;20193;-70
2023/12/29 01:09:47;;;;;;;3.37;3.10;;;;;;;13.29;54.58;97491.47;5067668;28;20326;-71
2023/12/29 01:12:14;;;;;;;3.53;3.17;;;;;;;13.45;54.13;97495.16;5082852;28;20181;-71
2023/12/29 01:14:40;;;;;;;3.43;3.00;;;;;;;13.29;54.38;97501.19;5075551;28;20189;-69
2023/12/29 01:17:05;;;;;;;3.63;3.30;;;;;;;13.42;53.82;97500.72;5069171;28;20921;-69
2023/12/29 01:19:31;;;;;;;2.73;2.50;;;;;;;13.42;53.94;97491.00;5076686;28;20175;-70
2023/12/29 01:21:56;;;;;;;3.27;2.97;;;;;;;13.44;53.87;97482.97;5077750;28;20574;-69
2023/12/29 01:24:22;;;;;;;3.13;2.83;;;;;;;13.44;53.66;97494.31;5076766;28;20323;-69
2023/12/29 01:26:47;;;;;;;4.57;3.20;;;;;;;13.43;53.36;97489.22;5065974;28;20277;-70
2023/12/29 01:29:13;;;;;;;4.17;3.77;;;;;;;13.33;53.77;97476.16;5073155;28;20202;-70
2023/12/29 01:31:39;;;;;;;3.10;2.90;;;;;;;13.19;53.90;97481.09;5060975;28;20182;-69
2023/12/29 01:34:05;;;;;;;3.83;3.00;;;;;;;13.16;53.98;97480.59;5079403;28;20474;-70
2023/12/29 01:36:30;;;;;;;3.50;3.20;;;;;;;13.19;54.26;97486.34;5061024;28;20275;-68
2023/12/29 01:38:55;;;;;;;8.87;3.33;;;;;;;13.20;53.88;97495.88;5076552;28;20188;-70
2023/12/29 01:41:21;;;;;;;3.93;3.53;;;;;;;13.19;54.17;97486.34;5069375;28;20225;-68
2023/12/29 01:44:01;;;;;;;5.10;4.07;;;;;;;13.20;54.12;97489.81;5069070;28;20198;-69
2023/12/29 01:46:33;;;;;;;3.50;3.20;;;;;;;13.13;54.27;97494.06;5077218;28;20206;-68
2023/12/29 01:48:59;;;;;;;3.60;2.80;;;;;;;13.20;54.09;97493.25;5059134;28;20520;-69
2023/12/29 01:51:26;;;;;;;4.40;3.00;;;;;;;13.17;54.42;97482.25;5059224;28;20424;-69
2023/12/29 01:53:55;;;;;;;4.60;3.20;;;;;;;13.30;54.14;97487.00;5082038;28;20484;-69
2023/12/29 01:56:22;;;;;;;5.00;3.47;;;;;;;13.37;53.82;97485.41;5070371;28;21044;-68
2023/12/29 01:58:51;;;;;;;5.13;3.87;;;;;;;13.28;54.16;97484.56;5068821;28;20431;-69
2023/12/29 02:01:18;;;;;;;3.60;3.30;;;;;;;13.42;53.91;97472.56;5079804;28;20474;-70
2023/12/29 02:03:44;;;;;;;3.83;3.40;;;;;;;13.31;53.97;97472.88;5079133;28;20813;-68
2023/12/29 02:06:10;;;;;;;5.13;3.60;;;;;;;13.31;54.14;97473.72;5083231;28;20427;-69
2023/12/29 02:08:40;;;;;;;7.60;3.20;;;;;;;13.32;54.28;97469.25;5083017;28;20424;-70
2023/12/29 02:11:06;;;;;;;4.10;3.30;;;;;;;13.30;54.08;97471.22;5076245;28;20204;-68
2023/12/29 02:13:31;;;;;;;4.90;3.40;;;;;;;13.27;54.58;97472.38;5059856;28;20456;-69
2023/12/29 02:16:02;;;;;;;4.53;3.70;;;;;;;13.25;54.36;97457.75;5087103;28;20189;-68
2023/12/29 02:18:30;;;;;;;3.97;3.67;;;;;;;13.11;54.63;97467.09;5049324;28;20706;-70
2023/12/29 02:20:55;;;;;;;3.87;3.57;;;;;;;13.15;54.73;97469.25;5075831;28;20416;-70
2023/12/29 02:23:20;;;;;;;5.20;4.20;;;;;;;13.14;54.62;97461.50;5070198;28;20485;-72
2023/12/29 02:25:46;;;;;;;4.23;3.30;;;;;;;13.13;54.48;97459.84;5082921;28;20224;-69
2023/12/29 02:28:17;;;;;;;4.80;3.70;;;;;;;13.15;54.61;97457.88;5072704;28;20300;-69
2023/12/29 02:30:51;;;;;;;4.17;3.67;;;;;;;13.17;54.30;97450.66;5063078;28;20245;-70
2023/12/29 02:33:21;;;;;;;4.33;3.80;;;;;;;13.09;54.74;97451.47;5066339;28;20829;-73
2023/12/29 02:35:49;;;;;;;5.10;3.77;;;;;;;12.88;55.35;97465.06;5061743;28;20432;-70
2023/12/29 02:38:14;;;;;;;6.13;3.30;;;;;;;13.05;54.88;97453.59;5086195;28;20451;-71
2023/12/29 02:40:40;;;;;;;3.97;3.67;;;;;;;12.98;55.27;97447.31;5045933;28;20497;-70
2023/12/29 02:43:05;;;;;;;3.83;3.50;;;;;;;13.07;55.28;97445.53;5078987;28;20206;-70
2023/12/29 02:45:31;;;;;;;6.70;3.73;;;;;;;12.86;56.05;97448.63;5072470;28;20312;-69
2023/12/29 02:47:57;;;;;;;5.17;3.50;;;;;;;12.95;56.17;97444.19;5072763;28;20217;-69
2023/12/29 02:50:22;;;;;;;6.67;3.70;;;;;;;12.91;56.55;97433.19;5076918;28;20189;-70
2023/12/29 02:52:48;;;;;;;6.20;4.30;;;;;;;13.06;56.27;97443.88;5063720;28;20473;-70
2023/12/29 02:55:13;;;;;;;4.13;3.57;;;;;;;12.91;57.10;97435.81;5080514;28;20202;-71
2023/12/29 02:57:39;;;;;;;5.87;4.10;;;;;;;12.78;57.30;97425.78;5077565;28;20194;-70
2023/12/29 03:00:05;;;;;;;4.93;3.90;;;;;;;13.00;57.09;97447.19;5078161;28;20217;-71
2023/12/29 03:02:31;;;;;;;4.30;3.90;;;;;;;13.06;56.88;97438.63;5075115;28;20189;-69
2023/12/29 03:04:56;;;;;;;4.40;3.90;;;;;;;12.96;57.15;97438.81;5079807;28;20416;-69
2023/12/29 03:07:22;;;;;;;4.63;4.00;;;;;;;13.09;56.60;97426.97;5080272;28;20186;-70
2023/12/29 03:09:47;;;;;;;5.30;3.50;;;;;;;13.10;56.89;97428.63;5070521;28;20272;-69
2023/12/29 03:12:13;;;;;;;6.43;4.10;;;;;;;13.02;56.92;97432.88;5052701;28;20182;-68
2023/12/29 03:14:38;;;;;;;4.40;4.00;;;;;;;12.88;57.62;97425.59;5079101;28;20211;-69
2023/12/29 03:17:04;;;;;;;3.57;3.27;;;;;;;12.88;57.82;97433.50;5072770;28;20919;-70
2023/12/29 03:19:29;;;;;;;4.10;3.70;;;;;;;12.95;57.66;97420.53;5069260;28;20193;-69
2023/12/29 03:21:55;;;;;;;5.03;3.80;;;;;;;13.06;57.00;97430.72;5083055;28;20184;-69
2023/12/29 03:24:20;;;;;;;4.33;3.73;;;;;;;13.09;56.76;97421.72;5063514;28;20743;-69
2023/12/29 03:26:46;;;;;;;6.33;3.80;;;;;;;12.89;57.76;97411.47;5075116;28;20255;-69
2023/12/29 03:29:11;;;;;;;4.93;3.73;;;;;;;12.78;57.95;97411.78;5074876;28;20280;-69
2023/12/29 03:31:37;;;;;;;5.63;3.93;;;;;;;12.87;58.11;97405.56;5080738;28;20269;-69
2023/12/29 03:34:02;;;;;;;3.63;3.33;;;;;;;12.83;58.78;97412.13;5071141;28;20205;-71
2023/12/29 03:36:28;;;;;;;4.30;3.47;;;;;;;12.87;58.63;97403.75;5058239;28;20557;-69
2023/12/29 03:38:53;;;;;;;5.00;3.80;;;;;;;12.90;58.32;97400.81;5057755;28;20593;-69
2023/12/29 03:41:18;;;;;;;4.33;3.93;;;;;;;12.88;58.36;97391.41;5076636;28;20883;-70
2023/12/29 03:43:44;;;;;;;4.13;3.27;;;;;;;12.93;58.34;97391.75;5067898;28;20427;-70
2023/12/29 03:46:17;;;;;;;4.20;2.90;;;;;;;12.76;58.76;97401.44;5079628;28;20265;-69
2023/12/29 03:48:42;;;;;;;3.67;2.80;;;;;;;12.97;58.22;97405.41;5075539;28;20656;-69
2023/12/29 03:51:08;;;;;;;3.70;3.30;;;;;;;12.80;58.68;97404.56;5072199;28;20451;-69
2023/12/29 03:53:33;;;;;;;4.03;3.30;;;;;;;12.91;58.61;97401.63;5078509;28;20213;-70
2023/12/29 03:55:59;;;;;;;5.37;3.50;;;;;;;12.88;58.66;97404.56;5064644;28;20182;-70
2023/12/29 03:58:24;;;;;;;4.47;3.37;;;;;;;12.88;58.40;97394.88;5085117;28;20265;-71
2023/12/29 04:00:50;;;;;;;3.70;2.63;;;;;;;12.92;58.27;97400.63;5079362;28;20235;-69
2023/12/29 04:03:15;;;;;;;4.20;3.33;;;;;;;12.99;58.22;97396.38;5073698;28;20285;-69
2023/12/29 04:05:41;;;;;;;3.73;3.43;;;;;;;12.87;58.51;97409.03;5071302;28;20186;-69
2023/12/29 04:08:06;;;;;;;7.73;2.80;;;;;;;12.74;59.00;97404.22;5063222;28;20311;-69
2023/12/29 04:10:31;;;;;;;2.90;2.60;;;;;;;12.61;59.75;97393.34;5076320;28;20189;-71
2023/12/29 04:12:57;;;;;;;4.17;3.77;;;;;;;12.65;59.59;97386.78;5071379;28;20284;-69
2023/12/29 04:15:22;;;;;;;4.10;3.20;;;;;;;12.57;60.12;97392.03;5079592;28;20205;-70
2023/12/29 04:17:48;;;;;;;4.13;3.30;;;;;;;12.66;60.01;97391.06;5080086;28;20568;-70
2023/12/29 04:20:13;;;;;;;3.30;2.67;;;;;;;12.71;59.79;97385.31;5078819;28;20180;-70
2023/12/29 04:22:39;;;;;;;3.90;3.10;;;;;;;12.57;60.34;97392.03;5074387;28;20200;-69
2023/12/29 04:25:04;;;;;;;3.30;3.00;;;;;;;12.60;59.90;97389.09;5077421;28;20174;-69
2023/12/29 04:27:29;;;;;;;4.40;3.27;;;;;;;12.66;59.85;97398.13;5067942;28;20856;-72
2023/12/29 04:29:55;;;;;;;3.70;3.10;;;;;;;12.66;59.86;97401.56;5072239;28;20437;-69
2023/12/29 04:32:20;;;;;;;4.00;3.10;;;;;;;12.69;60.36;97406.53;5075719;28;20196;-71
2023/12/29 04:34:46;;;;;;;4.13;2.80;;;;;;;12.69;60.23;97403.06;5056244;28;20298;-69
2023/12/29 04:37:11;;;;;;;5.00;3.00;;;;;;;12.70;60.61;97387.13;5047093;28;20268;-68
2023/12/29 04:39:37;;;;;;;3.73;3.17;;;;;;;12.63;60.76;97394.00;5076575;28;20181;-69
2023/12/29 04:42:03;;;;;;;3.43;3.13;;;;;;;12.73;60.35;97392.03;5065350;28;20177;-69
2023/12/29 04:44:28;;;;;;;4.27;3.13;;;;;;;12.66;60.70;97385.00;5076509;28;20197;-69
2023/12/29 04:46:54;;;;;;;3.37;3.00;;;;;;;12.72;60.99;97397.47;5041377;28;20213;-69
2023/12/29 04:49:19;;;;;;;4.07;3.67;;;;;;;12.70;60.93;97399.44;5078896;28;20185;-68
2023/12/29 04:51:44;;;;;;;3.50;3.20;;;;;;;12.53;61.50;97409.09;5072198;28;20232;-71
2023/12/29 04:54:10;;;;;;;4.30;3.50;;;;;;;12.68;61.05;97410.13;5071971;28;20197;-69
2023/12/29 04:56:35;;;;;;;3.27;2.97;;;;;;;12.59;61.32;97400.59;5062063;28;20191;-71
2023/12/29 04:59:01;;;;;;;3.47;3.17;;;;;;;12.66;61.69;97406.03;5045013;28;20228;-69
2023/12/29 05:01:26;;;;;;;4.80;3.30;;;;;;;12.63;61.76;97406.34;5063859;28;20181;-69
2023/12/29 05:03:52;;;;;;;3.87;3.53;;;;;;;12.67;61.30;97403.22;5075316;28;20198;-71
2023/12/29 05:06:17;;;;;;;3.70;3.40;;;;;;;12.65;61.30;97410.44;5066358;28;20273;-70
2023/12/29 05:08:42;;;;;;;4.90;4.07;;;;;;;12.61;61.56;97411.75;5066378;28;20251;-71
2023/12/29 05:11:08;;;;;;;3.47;3.17;;;;;;;12.55;61.87;97409.75;5071513;28;20363;-70
2023/12/29 05:13:33;;;;;;;4.30;3.20;;;;;;;12.59;61.94;97414.53;5072480;28;20229;-71
2023/12/29 05:15:59;;;;;;;6.87;3.37;;;;;;;12.72;61.50;97411.47;5058985;28;20252;-69
2023/12/29 05:18:26;;;;;;;3.23;2.93;;;;;;;12.77;61.39;97410.13;5065716;28;20226;-70
2023/12/29 05:20:53;;;;;;;3.50;3.20;;;;;;;12.86;61.29;97414.41;5062998;28;20193;-69
2023/12/29 05:23:18;;;;;;;3.80;3.27;;;;;;;12.93;61.02;97412.81;5066054;28;20536;-70
2023/12/29 05:25:44;;;;;;;3.40;3.10;;;;;;;12.99;61.17;97414.78;5082310;28;20424;-69
2023/12/29 05:28:09;;;;;;;3.57;3.00;;;;;;;13.01;60.95;97425.16;5078996;28;20276;-69
2023/12/29 05:30:34;;;;;;;3.20;2.90;;;;;;;13.04;60.85;97414.31;5072686;28;20194;-70
2023/12/29 05:33:00;;;;;;;5.33;3.00;;;;;;;13.05;61.62;97410.66;5069829;28;20425;-69
2023/12/29 05:35:25;;;;;;;3.47;3.17;;;;;;;12.96;61.44;97409.88;5071156;28;20213;-71
2023/12/29 05:37:51;;;;;;;3.30;3.10;;;;;;;12.93;62.03;97404.91;5043230;28;20658;-68
2023/12/29 05:40:16;;;;;;;3.37;3.07;;;;;;;12.99;61.64;97409.50;5068563;28;20564;-69
2023/12/29 05:42:42;;;;;;;5.37;3.03;;;;;;;13.05;61.52;97406.25;5076247;28;20183;-71
2023/12/29 05:45:08;;;;;;;3.90;3.00;;;;;;;13.02;61.71;97406.56;5049504;28;20203;-70
2023/12/29 05:47:33;;;;;;;3.10;2.80;;;;;;;13.08;61.74;97405.09;5067468;28;20658;-70
2023/12/29 05:49:59;;;;;;;3.93;2.60;;;;;;;13.12;61.59;97421.38;5054425;28;20461;-70
2023/12/29 05:52:24;;;;;;;3.87;3.00;;;;;;;13.11;61.55;97419.72;5068955;28;20186;-69
2023/12/29 05:54:50;;;;;;;4.13;3.00;;;;;;;13.11;61.41;97411.81;5075483;28;20222;-70
2023/12/29 05:57:16;;;;;;;3.80;3.10;;;;;;;13.15;61.67;97411.38;5066447;28;20183;-70
2023/12/29 05:59:41;;;;;;;4.03;3.50;;;;;;;12.91;61.69;97414.78;5061755;28;20250;-70
2023/12/29 06:02:07;;;;;;;3.60;3.30;;;;;;;13.04;61.53;97414.31;5067526;28;20424;-71
2023/12/29 06:04:32;;;;;;;5.37;3.30;;;;;;;12.88;62.29;97421.19;5079482;28;20209;-70
2023/12/29 06:06:58;;;;;;;4.57;3.00;;;;;;;12.89;62.10;97420.22;5059021;28;20182;-71
2023/12/29 06:09:23;;;;;;;3.07;2.87;;;;;;;12.86;62.30;97423.16;5069776;28;20217;-72
2023/12/29 06:11:49;;;;;;;3.70;3.40;;;;;;;12.79;63.00;97427.41;5059054;28;20252;-69
2023/12/29 06:14:15;;;;;;;4.93;3.03;;;;;;;12.88;62.74;97420.34;5072955;28;20300;-70
2023/12/29 06:16:40;;;;;;;3.03;2.83;;;;;;;12.88;62.54;97425.59;5062812;28;20958;-70
2023/12/29 06:19:06;;;;;;;13.80;2.87;;;;;;;12.88;63.06;97425.59;5051588;28;20190;-70
2023/12/29 06:21:31;;;;;;;5.80;3.17;;;;;;;12.91;63.09;97430.56;5069291;28;20178;-70
2023/12/29 06:23:56;;;;;;;4.97;3.23;;;;;;;12.92;62.89;97436.66;5071143;28;20264;-70
2023/12/29 06:26:22;;;;;;;3.20;2.80;;;;;;;12.85;63.68;97420.69;5065262;28;20185;-71
2023/12/29 06:28:48;;;;;;;4.10;2.63;;;;;;;12.78;63.78;97424.94;5063783;28;20187;-69
2023/12/29 06:31:14;;;;;;;3.00;2.80;;;;;;;12.75;64.16;97421.63;5074524;28;20494;-70
2023/12/29 06:33:43;;;;;;;3.43;2.50;;;;;;;12.78;64.12;97424.94;5068495;28;20205;-68
2023/12/29 06:36:09;;;;;;;3.90;3.13;;;;;;;12.63;64.77;97430.81;5052696;28;20232;-70
2023/12/29 06:38:34;;;;;;;3.20;2.90;;;;;;;12.68;64.58;97428.53;5063592;28;20522;-70
2023/12/29 06:41:04;;;;;;;3.30;3.03;;;;;;;12.66;64.78;97417.34;5060027;28;20418;-71
2023/12/29 06:43:30;;;;;;;3.90;3.20;;;;;;;12.74;64.49;97401.59;5055755;28;20207;-70
2023/12/29 06:45:55;;;;;;;2.97;2.77;;;;;;;12.79;64.41;97411.63;5056607;28;20420;-69
2023/12/29 06:48:21;;;;;;;2.87;2.60;;;;;;;12.84;64.52;97403.28;5062981;28;20210;-70
2023/12/29 06:50:46;;;;;;;3.80;3.27;;;;;;;12.73;64.96;97396.50;5081652;28;20741;-69
2023/12/29 06:53:12;;;;;;;2.80;2.60;;;;;;;12.64;64.70;97405.34;5057511;28;20336;-70
2023/12/29 06:55:37;;;;;;;3.00;2.80;;;;;;;12.77;64.18;97412.78;5077409;28;20302;-69
2023/12/29 06:58:04;;;;;;;3.07;2.80;;;;;;;12.54;65.39;97408.13;5069894;28;20198;-69
2023/12/29 07:00:29;;;;;;;3.00;2.80;;;;;;;12.42;65.81;97411.03;5078433;28;20188;-71
2023/12/29 07:02:55;;;;;;;3.97;3.23;;;;;;;12.64;65.03;97414.06;5069366;28;20432;-70
2023/12/29 07:05:20;;;;;;;3.90;3.17;;;;;;;12.55;65.33;97405.31;5087989;28;20185;-70
2023/12/29 07:07:46;;;;;;;3.60;3.30;;;;;;;12.60;65.62;97400.41;5067494;28;20269;-69
2023/12/29 07:10:14;;;;;;;5.07;3.70;;;;;;;12.71;65.01;97404.56;5054464;28;20591;-69
2023/12/29 07:12:43;;;;;;;7.77;3.50;;;;;;;12.77;64.91;97410.13;5081897;28;20178;-69
2023/12/29 07:15:09;;;;;;;3.47;3.10;;;;;;;12.79;64.65;97411.63;5068790;28;20463;-69
2023/12/29 07:17:34;;;;;;;3.63;3.20;;;;;;;12.84;64.37;97416.41;5075542;28;20903;-70
2023/12/29 07:20:00;;;;;;;3.03;2.77;;;;;;;12.87;64.30;97413.44;5081071;28;20203;-70
2023/12/29 07:22:25;;;;;;;2.77;2.57;;;;;;;12.93;64.48;97417.22;5072019;28;20912;-70
2023/12/29 07:24:51;;;;;;;4.43;2.80;;;;;;;12.90;64.21;97402.59;5075458;28;20205;-71
2023/12/29 07:27:16;;;;;;;3.00;2.80;;;;;;;12.95;64.03;97412.63;5072666;28;20284;-70
2023/12/29 07:29:42;;;;;;;2.93;2.63;;;;;;;12.99;63.88;97409.50;5071265;28;20523;-70
2023/12/29 07:32:07;;;;;;;3.70;2.70;;;;;;;12.98;64.06;97413.13;5069724;28;20270;-71
2023/12/29 07:34:33;;;;;;;5.60;3.10;;;;;;;12.89;63.99;97401.78;5076132;28;20193;-69
2023/12/29 07:36:59;;;;;;;2.57;2.37;;;;;;;12.97;64.15;97405.41;5068810;28;20196;-70
2023/12/29 07:39:24;;;;;;;2.53;2.33;;;;;;;13.05;63.82;97410.66;5068140;28;20206;-70
2023/12/29 07:41:50;;;;;;;4.23;3.17;;;;;;;12.94;63.85;97416.25;5067040;28;20270;-70
2023/12/29 07:44:17;;;;;;;5.30;2.70;;;;;;;12.92;64.13;97415.63;5082091;28;20223;-69
2023/12/29 07:46:42;;;;;;;3.17;2.87;;;;;;;12.95;64.24;97407.38;5069431;28;20430;-69
2023/12/29 07:49:08;;;;;;;3.00;2.60;;;;;;;12.94;64.17;97409.19;5075968;28;21034;-69
2023/12/29 07:51:33;;;;;;;5.67;2.80;;;;;;;12.97;64.35;97403.63;5072395;28;20268;-69
2023/12/29 07:53:59;;;;;;;3.37;2.70;;;;;;;13.00;64.22;97398.00;5066462;28;20259;-69
2023/12/29 07:56:24;;;;;;;7.73;3.07;;;;;;;13.04;64.17;97401.97;5074753;28;20209;-71
2023/12/29 07:58:50;;;;;;;5.67;2.97;;;;;;;12.93;64.27;97407.56;5063928;28;20276;-70
2023/12/29 08:01:16;;;;;;;4.40;2.87;;;;;;;12.99;63.90;97414.78;5065628;28;20182;-71
2023/12/29 08:03:41;;;;;;;3.97;2.97;;;;;;;13.04;63.78;97415.13;5073400;28;20711;-70
2023/12/29 08:06:06;;;;;;;4.43;3.00;;;;;;;13.04;63.88;97409.88;5054117;28;20222;-69
2023/12/29 08:08:32;;;;;;;2.70;2.50;;;;;;;12.92;64.56;97413.78;5069525;28;20184;-70
2023/12/29 08:10:57;;;;;;;2.60;2.40;;;;;;;13.04;64.10;97420.38;5063494;28;20191;-71
2023/12/29 08:13:23;;;;;;;3.33;3.00;;;;;;;12.99;64.18;97417.41;5071804;28;20226;-71
2023/12/29 08:15:48;;;;;;;3.50;2.53;;;;;;;13.04;64.04;97425.66;5053310;28;20204;-70
2023/12/29 08:18:14;;;;;;;2.70;2.50;;;;;;;13.04;64.10;97423.03;5071847;28;20266;-69
2023/12/29 08:20:39;;;;;;;2.73;2.53;;;;;;;13.10;64.33;97418.09;5061788;28;20186;-68
2023/12/29 08:23:05;;;;;;;2.73;2.53;;;;;;;13.16;64.24;97422.69;5064507;28;20203;-70
2023/12/29 08:25:30;;;;;;;4.17;2.37;;;;;;;13.24;64.21;97419.25;5064336;28;20532;-69
2023/12/29 08:27:56;;;;;;;3.20;2.90;;;;;;;13.29;63.89;97433.56;5069037;28;20186;-70
2023/12/29 08:30:21;;;;;;;3.20;2.43;;;;;;;13.33;63.73;97431.41;5064339;28;20204;-70
2023/12/29 08:32:47;;;;;;;3.87;2.27;;;;;;;13.30;64.08;97429.94;5063630;28;20239;-69
2023/12/29 08:35:12;;;;;;;4.03;2.77;;;;;;;13.28;63.76;97429.28;5068808;28;20796;-69
2023/12/29 08:37:38;;;;;;;2.83;2.53;;;;;;;13.44;63.93;97435.56;5071241;28;20181;-69
2023/12/29 08:40:04;;;;;;;4.50;2.73;;;;;;;13.36;63.94;97418.75;5071744;28;20183;-70
2023/12/29 08:42:29;;;;;;;3.70;2.70;;;;;;;13.37;63.59;97430.13;5064652;28;20295;-69
2023/12/29 08:44:55;;;;;;;3.07;2.83;;;;;;;13.42;63.67;97425.19;5066717;28;20913;-68
2023/12/29 08:47:20;;;;;;;3.03;2.80;;;;;;;13.39;63.63;97427.31;5063955;28;20174;-70
2023/12/29 08:49:48;;;;;;;5.27;2.80;;;;;;;13.45;63.24;97421.44;5064859;28;20215;-69
2023/12/29 08:52:14;;;;;;;3.20;2.90;;;;;;;13.51;63.21;97432.13;5068359;28;20185;-72
2023/12/29 08:54:39;;;;;;;4.03;3.07;;;;;;;13.44;63.49;97446.09;5064494;28;20453;-71
2023/12/29 08:57:06;;;;;;;3.33;3.03;;;;;;;13.29;63.62;97436.19;5070085;28;20258;-72
2023/12/29 08:59:32;;;;;;;3.30;2.77;;;;;;;13.29;63.29;97436.19;5064462;28;20240;-73
2023/12/29 09:01:57;;;;;;;3.23;3.00;;;;;;;13.32;63.42;97433.25;5050241;28;20417;-71
2023/12/29 09:04:23;;;;;;;3.83;2.63;;;;;;;13.33;63.24;97428.78;5063345;28;20191;-72
2023/12/29 09:06:48;;;;;;;5.33;3.10;;;;;;;13.27;62.96;97432.09;5059434;28;20174;-72
2023/12/29 09:09:14;;;;;;;3.30;2.63;;;;;;;13.33;63.40;97434.06;5068059;28;20582;-71
2023/12/29 09:11:40;;;;;;;6.53;2.70;;;;;;;13.28;63.71;97426.66;5050354;28;20183;-71
2023/12/29 09:14:05;;;;;;;3.27;2.57;;;;;;;13.31;63.19;97422.84;5057971;28;20209;-71
2023/12/29 09:16:31;;;;;;;4.40;2.37;;;;;;;13.34;63.37;97419.91;5060627;28;20195;-71
2023/12/29 09:18:56;;;;;;;2.97;2.33;;;;;;;13.20;63.45;97422.19;5072912;28;20175;-71
2023/12/29 09:21:22;;;;;;;2.50;2.30;;;;;;;13.36;63.22;97421.38;5067240;28;20174;-71
2023/12/29 09:23:48;;;;;;;3.60;3.30;;;;;;;13.53;62.81;97431.94;5049747;28;20251;-71
2023/12/29 09:26:13;;;;;;;3.50;2.20;;;;;;;13.50;63.34;97429.63;5065573;28;20507;-71
2023/12/29 09:28:41;;;;;;;2.47;2.20;;;;;;;13.57;63.04;97438.53;5057720;28;20274;-72
2023/12/29 09:31:07;;;;;;;3.00;2.00;;;;;;;13.60;63.29;97440.84;5064729;28;20288;-72
2023/12/29 09:33:32;;;;;;;3.03;2.20;;;;;;;13.63;63.13;97434.41;5064953;28;20965;-71
2023/12/29 09:35:58;;;;;;;6.00;2.77;;;;;;;13.63;63.10;97444.94;5072837;28;20190;-72
2023/12/29 09:38:23;;;;;;;2.97;2.63;;;;;;;13.67;63.45;97435.75;5071485;28;20193;-71
2023/12/29 09:40:49;;;;;;;2.37;2.17;;;;;;;13.33;63.83;97449.84;5077181;28;20268;-73
2023/12/29 09:43:14;;;;;;;4.20;2.20;;;;;;;13.74;63.70;97452.50;5076791;28;20242;-72
2023/12/29 09:45:42;;;;;;;2.43;2.23;;;;;;;13.90;62.91;97448.22;5050677;28;20193;-72
2023/12/29 09:48:09;;;;;;;2.73;2.40;;;;;;;14.11;62.61;97445.84;5067424;28;20194;-72
2023/12/29 09:50:35;;;;;;;2.57;2.37;;;;;;;14.23;61.91;97441.06;5071217;28;20435;-71
2023/12/29 09:53:02;;;;;;;2.90;2.20;;;;;;;14.21;61.75;97450.09;5064754;28;20426;-72
2023/12/29 09:55:28;;;;;;;6.50;2.47;;;;;;;14.24;61.84;97452.41;5046622;28;20234;-73
2023/12/29 09:57:54;;;;;;;3.30;2.00;;;;;;;14.44;61.71;97458.09;5064549;28;21095;-72
2023/12/29 10:00:20;;;;;;;3.03;2.43;;;;;;;14.38;61.54;97453.50;5051324;28;20713;-73
2023/12/29 10:02:46;;;;;;;3.73;2.10;;;;;;;14.39;60.96;97455.16;5075966;28;20445;-71
2023/12/29 10:05:11;;;;;;;2.63;2.03;;;;;;;14.37;60.87;97457.97;5071830;28;20628;-72
2023/12/29 10:07:38;;;;;;;4.40;2.10;;;;;;;14.51;60.90;97447.69;5084265;28;20196;-72
2023/12/29 10:10:04;;;;;;;4.10;2.20;;;;;;;14.98;60.61;97446.00;5077480;28;20246;-72
2023/12/29 10:12:29;;;;;;;2.43;2.10;;;;;;;15.31;59.81;97437.84;5073923;28;20864;-72
2023/12/29 10:15:06;;;;;;;2.20;2.10;;;;;;;15.51;58.43;97446.91;5049854;28;20522;-72
2023/12/29 10:17:50;;;;;;;2.03;1.87;;;;;;;15.18;58.16;97438.47;5064658;28;20917;-71
2023/12/29 10:20:41;;;;;;;2.40;2.20;;;;;;;15.35;57.75;97439.97;5069538;28;20449;-71
2023/12/29 10:23:34;;;;;;;2.23;1.90;;;;;;;15.24;57.64;97436.94;5048253;28;20532;-72
2023/12/29 10:26:00;;;;;;;2.13;1.93;;;;;;;15.24;57.82;97431.66;5070925;28;20413;-72
2023/12/29 10:28:25;;;;;;;2.13;1.70;;;;;;;15.66;57.00;97441.69;5049156;28;20452;-72
2023/12/29 10:30:51;;;;;;;2.33;1.90;;;;;;;15.65;56.08;97429.47;5064791;28;20662;-71
2023/12/29 10:33:21;;;;;;;2.30;1.70;;;;;;;15.74;55.08;97427.59;5067336;28;20334;-72
2023/12/29 10:36:07;;;;;;;1.63;1.53;;;;;;;16.35;53.86;97418.72;5069147;28;20584;-72
2023/12/29 10:38:32;;;;;;;3.47;1.47;;;;;;;16.85;52.70;97412.78;5066312;28;20429;-71
2023/12/29 10:41:15;;;;;;;1.30;1.20;;;;;;;17.57;51.62;97415.50;5074025;28;21073;-71
2023/12/29 10:43:42;;;;;;;1.63;1.30;;;;;;;18.02;49.56;97415.22;5071202;28;20440;-72
2023/12/29 10:46:08;;;;;;;1.77;1.27;;;;;;;18.16;48.60;97414.28;5069143;28;20444;-72
2023/12/29 10:48:34;;;;;;;2.10;1.30;;;;;;;18.38;47.75;97409.69;5054945;28;20896;-71
2023/12/29 10:51:01;;;;;;;1.40;1.30;;;;;;;18.90;46.39;97414.56;5070485;28;20487;-71
2023/12/29 10:53:28;;;;;;;1.70;1.60;;;;;;;19.08;45.68;97403.41;5072765;28;20206;-72
2023/12/29 10:56:00;;;;;;;1.70;1.50;;;;;;;19.58;45.04;97400.38;5052862;28;20427;-73
2023/12/29 10:58:29;;;;;;;1.60;1.50;;;;;;;19.75;43.55;97391.97;5023401;28;20443;-73
2023/12/29 11:00:56;;;;;;;1.87;1.37;;;;;;;20.08;43.47;97388.47;5065505;28;20422;-73
2023/12/29 11:03:21;;;;;;;1.83;1.43;;;;;;;19.80;43.09;97382.34;5060570;28;20896;-73
2023/12/29 11:05:47;;;;;;;1.90;1.80;;;;;;;19.95;44.04;97376.84;5058893;28;20456;-72
2023/12/29 11:08:17;;;;;;;3.00;1.63;;;;;;;20.07;42.08;97387.63;5044616;28;20182;-72
2023/12/29 11:10:44;;;;;;;3.77;3.40;;;;;;;20.27;42.89;97378.78;5051548;28;20603;-71
2023/12/29 11:13:11;;;;;;;2.43;2.23;;;;;;;20.39;42.07;97373.59;5038972;28;20451;-72
2023/12/29 11:15:37;;;;;;;1.23;1.13;;;;;;;20.19;41.71;97379.00;5066561;28;20484;-72
2023/12/29 11:18:04;;;;;;;2.07;1.90;;;;;;;20.13;42.09;97382.50;5045691;28;20491;-72
2023/12/29 11:20:30;;;;;;;2.40;1.80;;;;;;;20.15;42.12;97375.16;5048738;28;20428;-74
2023/12/29 11:22:55;;;;;;;2.70;2.50;;;;;;;20.37;41.68;97365.84;5053961;28;20492;-74
2023/12/29 11:25:21;;;;;;;5.73;1.47;;;;;;;20.34;41.26;97368.13;5045143;28;20184;-72
2023/12/29 11:27:48;;;;;;;1.87;1.53;;;;;;;20.35;41.11;97356.44;5068347;28;20239;-72
2023/12/29 11:30:14;;;;;;;1.43;1.33;;;;;;;20.67;40.80;97354.63;5045089;28;20183;-71